sensor_id;sensor_type;location;lat;lon;timestamp;temperature;humidity
26599;DHT22;14240;51.064;16.612;2023-07-31T00:00:15;18.00;99.90
26599;DHT22;14240;51.064;16.612;2023-07-31T00:02:41;17.40;99.90
26599;DHT22;14240;51.064;16.612;2023-07-31T00:05:08;17.40;99.90
26599;DHT22;14240;51.064;16.612;2023-07-31T00:07:34;17.40;99.90
26599;DHT22;14240;51.064;16.612;2023-07-31T00:09:59;17.40;99.90
26599;DHT22;14240;51.064;16.612;2023-07-31T00:12:25;17.30;99.90
26599;DHT22;14240;51.064;16.612;2023-07-31T00:14:51;17.30;99.90
26599;DHT22;14240;51.064;16.612;2023-07-31T00:17:17;17.30;99.90
26599;DHT22;14240;51.064;16.612;2023-07-31T00:19:43;17.30;99.90
26599;DHT22;14240;51.064;16.612;2023-07-31T00:22:09;17.30;99.90
26599;DHT22;14240;51.064;16.612;2023-07-31T00:24:34;17.30;99.90
26599;DHT22;14240;51.064;16.612;2023-07-31T00:27:00;17.30;99.90
26599;DHT22;14240;51.064;16.612;2023-07-31T00:29:25;17.30;99.90
26599;DHT22;14240;51.064;16.612;2023-07-31T00:31:51;17.30;99.90
26599;DHT22;14240;51.064;16.612;2023-07-31T00:34:17;17.30;99.90
26599;DHT22;14240;51.064;16.612;2023-07-31T00:36:42;17.30;99.90
26599;DHT22;14240;51.064;16.612;2023-07-31T00:39:08;17.30;99.90
26599;DHT22;14240;51.064;16.612;2023-07-31T00:41:34;17.30;99.90
26599;DHT22;14240;51.064;16.612;2023-07-31T00:43:59;17.30;99.90
26599;DHT22;14240;51.064;16.612;2023-07-31T00:46:25;17.30;99.90
26599;DHT22;14240;51.064;16.612;2023-07-31T00:48:51;17.30;99.90
26599;DHT22;14240;51.064;16.612;2023-07-31T00:51:17;17.40;99.90
26599;DHT22;14240;51.064;16.612;2023-07-31T00:53:43;17.40;99.90
26599;DHT22;14240;51.064;16.612;2023-07-31T00:56:10;17.30;99.90
26599;DHT22;14240;51.064;16.612;2023-07-31T00:58:36;17.30;99.90
26599;DHT22;14240;51.064;16.612;2023-07-31T01:01:02;17.40;99.90
26599;DHT22;14240;51.064;16.612;2023-07-31T01:03:27;17.40;99.90
26599;DHT22;14240;51.064;16.612;2023-07-31T01:08:57;17.30;99.90
26599;DHT22;14240;51.064;16.612;2023-07-31T01:11:28;17.40;99.90
26599;DHT22;14240;51.064;16.612;2023-07-31T01:13:55;17.40;99.90
26599;DHT22;14240;51.064;16.612;2023-07-31T01:16:21;17.30;99.90
26599;DHT22;14240;51.064;16.612;2023-07-31T01:18:47;17.30;99.90
26599;DHT22;14240;51.064;16.612;2023-07-31T01:24:49;17.30;99.90
26599;DHT22;14240;51.064;16.612;2023-07-31T01:26:47;17.30;99.90
26599;DHT22;14240;51.064;16.612;2023-07-31T01:29:23;17.30;99.90
26599;DHT22;14240;51.064;16.612;2023-07-31T01:31:53;17.30;99.90
26599;DHT22;14240;51.064;16.612;2023-07-31T01:34:21;17.30;99.90
26599;DHT22;14240;51.064;16.612;2023-07-31T01:36:47;17.20;99.90
26599;DHT22;14240;51.064;16.612;2023-07-31T01:39:13;17.30;99.90
26599;DHT22;14240;51.064;16.612;2023-07-31T01:41:41;17.30;99.90
26599;DHT22;14240;51.064;16.612;2023-07-31T01:44:06;17.30;99.90
26599;DHT22;14240;51.064;16.612;2023-07-31T01:46:32;17.30;99.90
26599;DHT22;14240;51.064;16.612;2023-07-31T01:48:58;17.30;99.90
26599;DHT22;14240;51.064;16.612;2023-07-31T01:51:23;17.30;99.90
26599;DHT22;14240;51.064;16.612;2023-07-31T01:53:49;17.30;99.90
26599;DHT22;14240;51.064;16.612;2023-07-31T01:56:15;17.20;99.90
26599;DHT22;14240;51.064;16.612;2023-07-31T01:58:41;17.20;99.90
26599;DHT22;14240;51.064;16.612;2023-07-31T02:01:06;17.20;99.90
26599;DHT22;14240;51.064;16.612;2023-07-31T02:03:32;17.20;99.90
26599;DHT22;14240;51.064;16.612;2023-07-31T02:05:58;17.20;99.90
26599;DHT22;14240;51.064;16.612;2023-07-31T02:08:23;17.00;99.90
26599;DHT22;14240;51.064;16.612;2023-07-31T02:10:49;17.00;99.90
26599;DHT22;14240;51.064;16.612;2023-07-31T02:13:15;17.00;99.90
26599;DHT22;14240;51.064;16.612;2023-07-31T02:15:40;17.00;99.90
26599;DHT22;14240;51.064;16.612;2023-07-31T02:18:06;16.90;99.90
26599;DHT22;14240;51.064;16.612;2023-07-31T02:20:35;16.90;99.90
26599;DHT22;14240;51.064;16.612;2023-07-31T02:23:01;16.80;99.90
26599;DHT22;14240;51.064;16.612;2023-07-31T02:25:26;16.80;99.90
26599;DHT22;14240;51.064;16.612;2023-07-31T02:27:52;16.80;99.90
26599;DHT22;14240;51.064;16.612;2023-07-31T02:30:18;16.70;99.90
26599;DHT22;14240;51.064;16.612;2023-07-31T02:32:43;16.70;99.90
26599;DHT22;14240;51.064;16.612;2023-07-31T02:35:10;16.70;99.90
26599;DHT22;14240;51.064;16.612;2023-07-31T02:37:36;16.70;99.90
26599;DHT22;14240;51.064;16.612;2023-07-31T02:40:03;16.70;99.90
26599;DHT22;14240;51.064;16.612;2023-07-31T02:42:29;16.70;99.90
26599;DHT22;14240;51.064;16.612;2023-07-31T02:44:55;16.60;99.90
26599;DHT22;14240;51.064;16.612;2023-07-31T02:47:22;16.60;99.90
26599;DHT22;14240;51.064;16.612;2023-07-31T02:49:48;16.60;99.90
26599;DHT22;14240;51.064;16.612;2023-07-31T02:52:13;16.60;99.90
26599;DHT22;14240;51.064;16.612;2023-07-31T02:54:39;16.70;99.90
26599;DHT22;14240;51.064;16.612;2023-07-31T02:57:05;16.60;99.90
26599;DHT22;14240;51.064;16.612;2023-07-31T02:59:31;16.60;99.90
26599;DHT22;14240;51.064;16.612;2023-07-31T03:01:56;16.60;99.90
26599;DHT22;14240;51.064;16.612;2023-07-31T03:04:22;16.60;99.90
26599;DHT22;14240;51.064;16.612;2023-07-31T03:06:48;16.60;99.90
26599;DHT22;14240;51.064;16.612;2023-07-31T03:09:13;16.70;99.90
26599;DHT22;14240;51.064;16.612;2023-07-31T03:11:39;16.70;99.90
26599;DHT22;14240;51.064;16.612;2023-07-31T03:14:05;16.60;99.90
26599;DHT22;14240;51.064;16.612;2023-07-31T03:16:30;16.60;99.90
26599;DHT22;14240;51.064;16.612;2023-07-31T03:18:56;16.60;99.90
26599;DHT22;14240;51.064;16.612;2023-07-31T03:21:22;16.60;99.90
26599;DHT22;14240;51.064;16.612;2023-07-31T03:23:47;16.60;99.90
26599;DHT22;14240;51.064;16.612;2023-07-31T03:26:13;16.60;99.90
26599;DHT22;14240;51.064;16.612;2023-07-31T03:28:39;16.60;99.90
26599;DHT22;14240;51.064;16.612;2023-07-31T03:31:04;16.50;99.90
26599;DHT22;14240;51.064;16.612;2023-07-31T03:33:30;16.60;99.90
26599;DHT22;14240;51.064;16.612;2023-07-31T03:35:56;16.50;99.90
26599;DHT22;14240;51.064;16.612;2023-07-31T03:38:22;16.50;99.90
26599;DHT22;14240;51.064;16.612;2023-07-31T03:40:48;16.50;99.90
26599;DHT22;14240;51.064;16.612;2023-07-31T03:43:14;16.50;99.90
26599;DHT22;14240;51.064;16.612;2023-07-31T03:45:40;16.50;99.90
26599;DHT22;14240;51.064;16.612;2023-07-31T03:48:06;16.50;99.90
26599;DHT22;14240;51.064;16.612;2023-07-31T03:50:33;16.50;99.90
26599;DHT22;14240;51.064;16.612;2023-07-31T03:52:59;16.50;99.90
26599;DHT22;14240;51.064;16.612;2023-07-31T03:55:24;16.50;99.90
26599;DHT22;14240;51.064;16.612;2023-07-31T03:57:50;16.50;99.90
26599;DHT22;14240;51.064;16.612;2023-07-31T04:00:15;16.50;99.90
26599;DHT22;14240;51.064;16.612;2023-07-31T04:02:41;16.50;99.90
26599;DHT22;14240;51.064;16.612;2023-07-31T04:05:07;16.50;99.90
26599;DHT22;14240;51.064;16.612;2023-07-31T04:07:33;16.60;99.90
26599;DHT22;14240;51.064;16.612;2023-07-31T04:10:00;16.60;99.90
26599;DHT22;14240;51.064;16.612;2023-07-31T04:12:26;16.60;99.90
26599;DHT22;14240;51.064;16.612;2023-07-31T04:14:51;16.60;99.90
26599;DHT22;14240;51.064;16.612;2023-07-31T04:17:18;16.60;99.90
26599;DHT22;14240;51.064;16.612;2023-07-31T04:19:44;16.60;99.90
26599;DHT22;14240;51.064;16.612;2023-07-31T04:22:09;16.60;99.90
26599;DHT22;14240;51.064;16.612;2023-07-31T04:24:35;16.70;99.90
26599;DHT22;14240;51.064;16.612;2023-07-31T04:27:01;16.70;99.90
26599;DHT22;14240;51.064;16.612;2023-07-31T04:29:26;16.70;99.90
26599;DHT22;14240;51.064;16.612;2023-07-31T04:31:52;16.80;99.90
26599;DHT22;14240;51.064;16.612;2023-07-31T04:34:18;16.80;99.90
26599;DHT22;14240;51.064;16.612;2023-07-31T04:36:44;16.90;99.90
26599;DHT22;14240;51.064;16.612;2023-07-31T04:39:09;16.90;99.90
26599;DHT22;14240;51.064;16.612;2023-07-31T04:41:35;16.90;99.90
26599;DHT22;14240;51.064;16.612;2023-07-31T04:44:01;17.00;99.90
26599;DHT22;14240;51.064;16.612;2023-07-31T04:46:27;17.00;99.90
26599;DHT22;14240;51.064;16.612;2023-07-31T04:48:52;17.00;99.90
26599;DHT22;14240;51.064;16.612;2023-07-31T04:51:18;17.10;99.90
26599;DHT22;14240;51.064;16.612;2023-07-31T04:53:43;17.10;99.90
26599;DHT22;14240;51.064;16.612;2023-07-31T04:56:09;17.10;99.90
26599;DHT22;14240;51.064;16.612;2023-07-31T04:58:35;17.10;99.90
26599;DHT22;14240;51.064;16.612;2023-07-31T05:01:00;17.20;99.90
26599;DHT22;14240;51.064;16.612;2023-07-31T05:03:26;17.20;99.90
26599;DHT22;14240;51.064;16.612;2023-07-31T05:05:52;17.20;99.90
26599;DHT22;14240;51.064;16.612;2023-07-31T05:08:18;17.20;99.90
26599;DHT22;14240;51.064;16.612;2023-07-31T05:10:43;17.30;99.90
26599;DHT22;14240;51.064;16.612;2023-07-31T05:13:09;17.30;99.90
26599;DHT22;14240;51.064;16.612;2023-07-31T05:15:35;17.40;99.90
26599;DHT22;14240;51.064;16.612;2023-07-31T05:18:00;17.40;99.90
26599;DHT22;14240;51.064;16.612;2023-07-31T05:20:26;17.40;99.90
26599;DHT22;14240;51.064;16.612;2023-07-31T05:22:53;17.50;99.90
26599;DHT22;14240;51.064;16.612;2023-07-31T05:25:18;17.50;99.90
26599;DHT22;14240;51.064;16.612;2023-07-31T05:27:44;17.60;99.90
26599;DHT22;14240;51.064;16.612;2023-07-31T05:30:10;17.60;99.90
26599;DHT22;14240;51.064;16.612;2023-07-31T05:32:36;17.70;99.90
26599;DHT22;14240;51.064;16.612;2023-07-31T05:35:01;17.80;99.90
26599;DHT22;14240;51.064;16.612;2023-07-31T05:37:27;17.80;99.90
26599;DHT22;14240;51.064;16.612;2023-07-31T05:39:53;17.80;99.90
26599;DHT22;14240;51.064;16.612;2023-07-31T05:42:18;17.90;99.90
26599;DHT22;14240;51.064;16.612;2023-07-31T05:44:44;17.90;99.90
26599;DHT22;14240;51.064;16.612;2023-07-31T05:47:10;18.00;99.90
26599;DHT22;14240;51.064;16.612;2023-07-31T05:49:36;18.10;99.90
26599;DHT22;14240;51.064;16.612;2023-07-31T05:52:02;18.10;99.90
26599;DHT22;14240;51.064;16.612;2023-07-31T05:54:27;18.10;99.90
26599;DHT22;14240;51.064;16.612;2023-07-31T05:56:53;18.20;99.90
26599;DHT22;14240;51.064;16.612;2023-07-31T05:59:19;18.20;99.90
26599;DHT22;14240;51.064;16.612;2023-07-31T06:01:44;18.20;99.90
26599;DHT22;14240;51.064;16.612;2023-07-31T06:04:10;18.20;99.90
26599;DHT22;14240;51.064;16.612;2023-07-31T06:06:36;18.30;99.90
26599;DHT22;14240;51.064;16.612;2023-07-31T06:09:01;18.30;99.90
26599;DHT22;14240;51.064;16.612;2023-07-31T06:11:28;18.30;99.90
26599;DHT22;14240;51.064;16.612;2023-07-31T06:13:54;18.30;99.90
26599;DHT22;14240;51.064;16.612;2023-07-31T06:16:20;18.40;99.90
26599;DHT22;14240;51.064;16.612;2023-07-31T06:18:47;18.50;99.90
26599;DHT22;14240;51.064;16.612;2023-07-31T06:21:13;18.60;99.90
26599;DHT22;14240;51.064;16.612;2023-07-31T06:23:38;18.60;99.90
26599;DHT22;14240;51.064;16.612;2023-07-31T06:26:04;18.70;99.90
26599;DHT22;14240;51.064;16.612;2023-07-31T06:28:31;18.80;99.90
26599;DHT22;14240;51.064;16.612;2023-07-31T06:30:57;18.90;99.90
26599;DHT22;14240;51.064;16.612;2023-07-31T06:33:23;18.90;99.90
26599;DHT22;14240;51.064;16.612;2023-07-31T06:35:50;19.00;99.90
26599;DHT22;14240;51.064;16.612;2023-07-31T06:38:19;19.10;99.90
26599;DHT22;14240;51.064;16.612;2023-07-31T06:40:44;19.10;99.90
26599;DHT22;14240;51.064;16.612;2023-07-31T06:43:10;19.20;99.90
26599;DHT22;14240;51.064;16.612;2023-07-31T06:45:36;19.20;99.90
26599;DHT22;14240;51.064;16.612;2023-07-31T06:48:02;19.30;99.90
26599;DHT22;14240;51.064;16.612;2023-07-31T06:50:29;19.30;99.90
26599;DHT22;14240;51.064;16.612;2023-07-31T06:52:55;19.40;99.90
26599;DHT22;14240;51.064;16.612;2023-07-31T06:55:22;19.40;99.90
26599;DHT22;14240;51.064;16.612;2023-07-31T06:57:49;19.40;99.90
26599;DHT22;14240;51.064;16.612;2023-07-31T07:00:16;19.50;99.90
26599;DHT22;14240;51.064;16.612;2023-07-31T07:02:42;19.60;99.90
26599;DHT22;14240;51.064;16.612;2023-07-31T07:05:08;19.60;99.90
26599;DHT22;14240;51.064;16.612;2023-07-31T07:07:34;19.70;99.90
26599;DHT22;14240;51.064;16.612;2023-07-31T07:10:00;19.70;99.90
26599;DHT22;14240;51.064;16.612;2023-07-31T07:12:29;19.80;99.90
26599;DHT22;14240;51.064;16.612;2023-07-31T07:14:55;19.80;99.90
26599;DHT22;14240;51.064;16.612;2023-07-31T07:17:20;19.90;99.90
26599;DHT22;14240;51.064;16.612;2023-07-31T07:19:48;20.00;99.90
26599;DHT22;14240;51.064;16.612;2023-07-31T07:22:13;20.00;99.90
26599;DHT22;14240;51.064;16.612;2023-07-31T07:24:39;20.10;99.90
26599;DHT22;14240;51.064;16.612;2023-07-31T07:27:05;20.20;99.90
26599;DHT22;14240;51.064;16.612;2023-07-31T07:29:31;20.30;99.90
26599;DHT22;14240;51.064;16.612;2023-07-31T07:31:57;20.40;99.90
26599;DHT22;14240;51.064;16.612;2023-07-31T07:34:25;20.60;99.90
26599;DHT22;14240;51.064;16.612;2023-07-31T07:36:51;20.70;99.90
26599;DHT22;14240;51.064;16.612;2023-07-31T07:39:17;20.90;99.90
26599;DHT22;14240;51.064;16.612;2023-07-31T07:41:42;21.00;99.90
26599;DHT22;14240;51.064;16.612;2023-07-31T07:44:08;21.10;99.90
26599;DHT22;14240;51.064;16.612;2023-07-31T07:46:34;21.20;99.90
26599;DHT22;14240;51.064;16.612;2023-07-31T07:49:00;21.30;99.90
26599;DHT22;14240;51.064;16.612;2023-07-31T07:51:25;21.40;99.90
26599;DHT22;14240;51.064;16.612;2023-07-31T07:53:51;21.50;99.90
26599;DHT22;14240;51.064;16.612;2023-07-31T07:56:17;21.60;99.90
26599;DHT22;14240;51.064;16.612;2023-07-31T07:58:43;21.60;99.90
26599;DHT22;14240;51.064;16.612;2023-07-31T08:01:08;21.70;99.90
26599;DHT22;14240;51.064;16.612;2023-07-31T08:03:34;21.70;99.90
26599;DHT22;14240;51.064;16.612;2023-07-31T08:06:00;21.80;99.90
26599;DHT22;14240;51.064;16.612;2023-07-31T08:08:27;21.80;99.90
26599;DHT22;14240;51.064;16.612;2023-07-31T08:10:53;21.90;99.90
26599;DHT22;14240;51.064;16.612;2023-07-31T08:13:19;21.90;99.90
26599;DHT22;14240;51.064;16.612;2023-07-31T08:15:45;21.90;99.90
26599;DHT22;14240;51.064;16.612;2023-07-31T08:18:12;21.90;99.90
26599;DHT22;14240;51.064;16.612;2023-07-31T08:20:38;21.80;99.90
26599;DHT22;14240;51.064;16.612;2023-07-31T08:23:04;21.80;99.90
26599;DHT22;14240;51.064;16.612;2023-07-31T08:25:30;21.70;99.90
26599;DHT22;14240;51.064;16.612;2023-07-31T08:27:55;21.70;99.90
26599;DHT22;14240;51.064;16.612;2023-07-31T08:30:22;21.60;99.90
26599;DHT22;14240;51.064;16.612;2023-07-31T08:32:48;21.50;99.90
26599;DHT22;14240;51.064;16.612;2023-07-31T08:35:14;21.50;99.90
26599;DHT22;14240;51.064;16.612;2023-07-31T08:37:40;21.50;99.90
26599;DHT22;14240;51.064;16.612;2023-07-31T08:40:06;21.50;99.90
26599;DHT22;14240;51.064;16.612;2023-07-31T08:42:32;21.50;99.90
26599;DHT22;14240;51.064;16.612;2023-07-31T08:44:59;21.50;99.90
26599;DHT22;14240;51.064;16.612;2023-07-31T08:47:26;21.50;99.90
26599;DHT22;14240;51.064;16.612;2023-07-31T08:49:53;21.40;99.90
26599;DHT22;14240;51.064;16.612;2023-07-31T08:52:20;21.50;99.90
26599;DHT22;14240;51.064;16.612;2023-07-31T08:54:45;21.40;99.90
26599;DHT22;14240;51.064;16.612;2023-07-31T08:57:12;21.40;99.90
26599;DHT22;14240;51.064;16.612;2023-07-31T08:59:38;21.40;99.90
26599;DHT22;14240;51.064;16.612;2023-07-31T09:02:08;21.40;99.90
26599;DHT22;14240;51.064;16.612;2023-07-31T09:04:34;21.40;99.90
26599;DHT22;14240;51.064;16.612;2023-07-31T09:07:03;21.40;99.90
26599;DHT22;14240;51.064;16.612;2023-07-31T09:09:31;21.30;99.90
26599;DHT22;14240;51.064;16.612;2023-07-31T09:11:58;21.30;99.90
26599;DHT22;14240;51.064;16.612;2023-07-31T09:14:25;21.30;99.90
26599;DHT22;14240;51.064;16.612;2023-07-31T09:16:52;21.20;99.90
26599;DHT22;14240;51.064;16.612;2023-07-31T09:19:34;21.20;99.90
26599;DHT22;14240;51.064;16.612;2023-07-31T09:22:03;21.20;99.90
26599;DHT22;14240;51.064;16.612;2023-07-31T09:24:31;21.20;99.90
26599;DHT22;14240;51.064;16.612;2023-07-31T09:26:59;21.20;99.90
26599;DHT22;14240;51.064;16.612;2023-07-31T09:29:25;21.20;99.90
26599;DHT22;14240;51.064;16.612;2023-07-31T09:31:52;21.10;99.90
26599;DHT22;14240;51.064;16.612;2023-07-31T09:34:18;21.10;99.90
26599;DHT22;14240;51.064;16.612;2023-07-31T09:36:49;21.10;99.90
26599;DHT22;14240;51.064;16.612;2023-07-31T09:39:15;21.10;99.90
26599;DHT22;14240;51.064;16.612;2023-07-31T09:41:48;21.10;99.90
26599;DHT22;14240;51.064;16.612;2023-07-31T09:44:18;21.00;99.90
26599;DHT22;14240;51.064;16.612;2023-07-31T09:46:45;21.00;99.90
26599;DHT22;14240;51.064;16.612;2023-07-31T09:49:12;21.00;99.90
26599;DHT22;14240;51.064;16.612;2023-07-31T09:51:39;20.90;99.90
26599;DHT22;14240;51.064;16.612;2023-07-31T09:54:16;20.90;99.90
26599;DHT22;14240;51.064;16.612;2023-07-31T09:56:48;20.90;99.90
26599;DHT22;14240;51.064;16.612;2023-07-31T09:59:16;20.90;99.90
26599;DHT22;14240;51.064;16.612;2023-07-31T10:01:43;20.80;99.90
26599;DHT22;14240;51.064;16.612;2023-07-31T10:04:10;20.80;99.90
26599;DHT22;14240;51.064;16.612;2023-07-31T10:06:37;20.80;99.90
26599;DHT22;14240;51.064;16.612;2023-07-31T10:09:07;20.80;99.90
26599;DHT22;14240;51.064;16.612;2023-07-31T10:11:47;20.80;99.90
26599;DHT22;14240;51.064;16.612;2023-07-31T10:14:20;20.80;99.90
26599;DHT22;14240;51.064;16.612;2023-07-31T10:16:46;20.80;99.90
26599;DHT22;14240;51.064;16.612;2023-07-31T10:19:12;20.80;99.90
26599;DHT22;14240;51.064;16.612;2023-07-31T10:21:38;20.80;99.90
26599;DHT22;14240;51.064;16.612;2023-07-31T10:24:05;20.80;99.90
26599;DHT22;14240;51.064;16.612;2023-07-31T10:26:35;20.80;99.90
26599;DHT22;14240;51.064;16.612;2023-07-31T10:29:03;20.80;99.90
26599;DHT22;14240;51.064;16.612;2023-07-31T10:31:30;20.80;99.90
26599;DHT22;14240;51.064;16.612;2023-07-31T10:33:57;20.70;99.90
26599;DHT22;14240;51.064;16.612;2023-07-31T10:36:24;20.70;99.90
26599;DHT22;14240;51.064;16.612;2023-07-31T10:38:51;20.70;99.90
26599;DHT22;14240;51.064;16.612;2023-07-31T10:41:16;20.80;99.90
26599;DHT22;14240;51.064;16.612;2023-07-31T10:43:42;20.80;99.90
26599;DHT22;14240;51.064;16.612;2023-07-31T10:46:11;20.90;99.90
26599;DHT22;14240;51.064;16.612;2023-07-31T10:48:39;21.00;99.90
26599;DHT22;14240;51.064;16.612;2023-07-31T10:51:11;21.10;99.90
26599;DHT22;14240;51.064;16.612;2023-07-31T10:53:41;21.20;99.90
26599;DHT22;14240;51.064;16.612;2023-07-31T10:56:10;21.40;99.90
26599;DHT22;14240;51.064;16.612;2023-07-31T10:58:45;21.50;99.90
26599;DHT22;14240;51.064;16.612;2023-07-31T11:01:13;21.60;99.90
26599;DHT22;14240;51.064;16.612;2023-07-31T11:03:50;21.80;99.90
26599;DHT22;14240;51.064;16.612;2023-07-31T11:06:18;21.80;99.90
26599;DHT22;14240;51.064;16.612;2023-07-31T11:08:45;21.90;99.90
26599;DHT22;14240;51.064;16.612;2023-07-31T11:11:13;22.00;99.90
26599;DHT22;14240;51.064;16.612;2023-07-31T11:13:44;22.10;99.90
26599;DHT22;14240;51.064;16.612;2023-07-31T11:16:12;22.10;99.90
26599;DHT22;14240;51.064;16.612;2023-07-31T11:18:40;22.20;99.90
26599;DHT22;14240;51.064;16.612;2023-07-31T11:21:06;22.20;99.90
26599;DHT22;14240;51.064;16.612;2023-07-31T11:23:32;22.30;99.90
26599;DHT22;14240;51.064;16.612;2023-07-31T11:26:01;22.40;99.90
26599;DHT22;14240;51.064;16.612;2023-07-31T11:28:34;22.40;99.90
26599;DHT22;14240;51.064;16.612;2023-07-31T11:31:01;22.50;99.90
26599;DHT22;14240;51.064;16.612;2023-07-31T11:33:27;22.60;99.90
26599;DHT22;14240;51.064;16.612;2023-07-31T11:35:53;22.70;99.90
26599;DHT22;14240;51.064;16.612;2023-07-31T11:41:01;22.80;99.90
26599;DHT22;14240;51.064;16.612;2023-07-31T11:43:28;22.80;99.90
26599;DHT22;14240;51.064;16.612;2023-07-31T11:45:58;22.90;99.90
26599;DHT22;14240;51.064;16.612;2023-07-31T11:48:27;22.90;99.90
26599;DHT22;14240;51.064;16.612;2023-07-31T11:50:57;23.00;99.90
26599;DHT22;14240;51.064;16.612;2023-07-31T11:53:41;23.00;99.90
26599;DHT22;14240;51.064;16.612;2023-07-31T11:56:10;23.00;99.90
26599;DHT22;14240;51.064;16.612;2023-07-31T11:58:37;23.10;99.90
26599;DHT22;14240;51.064;16.612;2023-07-31T12:01:04;23.10;99.90
26599;DHT22;14240;51.064;16.612;2023-07-31T12:03:31;23.10;99.90
26599;DHT22;14240;51.064;16.612;2023-07-31T12:05:58;23.20;99.90
26599;DHT22;14240;51.064;16.612;2023-07-31T12:08:25;23.20;99.90
26599;DHT22;14240;51.064;16.612;2023-07-31T12:10:51;23.20;99.90
26599;DHT22;14240;51.064;16.612;2023-07-31T12:13:25;23.30;99.90
26599;DHT22;14240;51.064;16.612;2023-07-31T12:15:59;23.30;99.90
26599;DHT22;14240;51.064;16.612;2023-07-31T12:18:27;23.20;99.90
26599;DHT22;14240;51.064;16.612;2023-07-31T12:21:01;23.20;99.90
26599;DHT22;14240;51.064;16.612;2023-07-31T12:23:28;23.20;99.90
26599;DHT22;14240;51.064;16.612;2023-07-31T12:26:07;23.20;99.90
26599;DHT22;14240;51.064;16.612;2023-07-31T12:31:18;23.20;99.90
26599;DHT22;14240;51.064;16.612;2023-07-31T12:33:45;23.20;99.90
26599;DHT22;14240;51.064;16.612;2023-07-31T12:36:12;23.20;99.90
26599;DHT22;14240;51.064;16.612;2023-07-31T12:38:38;23.20;99.90
26599;DHT22;14240;51.064;16.612;2023-07-31T12:41:05;23.20;99.90
26599;DHT22;14240;51.064;16.612;2023-07-31T12:43:32;23.30;99.90
26599;DHT22;14240;51.064;16.612;2023-07-31T12:45:58;23.30;99.90
26599;DHT22;14240;51.064;16.612;2023-07-31T12:48:24;23.40;99.90
26599;DHT22;14240;51.064;16.612;2023-07-31T12:50:50;23.50;99.90
26599;DHT22;14240;51.064;16.612;2023-07-31T12:53:16;23.60;99.90
26599;DHT22;14240;51.064;16.612;2023-07-31T12:55:42;23.70;99.90
26599;DHT22;14240;51.064;16.612;2023-07-31T12:58:07;23.60;99.90
26599;DHT22;14240;51.064;16.612;2023-07-31T13:00:33;23.70;99.90
26599;DHT22;14240;51.064;16.612;2023-07-31T13:03:00;23.70;99.90
26599;DHT22;14240;51.064;16.612;2023-07-31T13:05:26;23.70;99.90
26599;DHT22;14240;51.064;16.612;2023-07-31T13:07:52;23.80;99.90
26599;DHT22;14240;51.064;16.612;2023-07-31T13:10:18;23.80;99.90
26599;DHT22;14240;51.064;16.612;2023-07-31T13:12:44;23.80;99.90
26599;DHT22;14240;51.064;16.612;2023-07-31T13:15:10;23.90;99.90
26599;DHT22;14240;51.064;16.612;2023-07-31T13:17:36;24.00;99.90
26599;DHT22;14240;51.064;16.612;2023-07-31T13:20:02;24.00;99.90
26599;DHT22;14240;51.064;16.612;2023-07-31T13:22:29;24.10;99.90
26599;DHT22;14240;51.064;16.612;2023-07-31T13:24:55;24.20;99.90
26599;DHT22;14240;51.064;16.612;2023-07-31T13:27:21;24.30;99.90
26599;DHT22;14240;51.064;16.612;2023-07-31T13:29:51;24.20;99.90
26599;DHT22;14240;51.064;16.612;2023-07-31T13:32:17;24.20;99.90
26599;DHT22;14240;51.064;16.612;2023-07-31T13:34:44;24.20;99.50
26599;DHT22;14240;51.064;16.612;2023-07-31T13:37:10;24.20;99.50
26599;DHT22;14240;51.064;16.612;2023-07-31T13:39:35;24.20;99.40
26599;DHT22;14240;51.064;16.612;2023-07-31T13:42:03;24.20;99.40
26599;DHT22;14240;51.064;16.612;2023-07-31T13:44:28;24.20;99.70
26599;DHT22;14240;51.064;16.612;2023-07-31T13:46:54;24.20;99.50
26599;DHT22;14240;51.064;16.612;2023-07-31T13:49:20;24.20;99.20
26599;DHT22;14240;51.064;16.612;2023-07-31T13:51:45;24.30;99.10
26599;DHT22;14240;51.064;16.612;2023-07-31T13:54:11;24.30;99.10
26599;DHT22;14240;51.064;16.612;2023-07-31T13:56:37;24.30;99.10
26599;DHT22;14240;51.064;16.612;2023-07-31T13:59:03;24.30;99.20
26599;DHT22;14240;51.064;16.612;2023-07-31T14:01:31;24.30;99.00
26599;DHT22;14240;51.064;16.612;2023-07-31T14:03:56;24.30;99.00
26599;DHT22;14240;51.064;16.612;2023-07-31T14:06:22;24.30;98.80
26599;DHT22;14240;51.064;16.612;2023-07-31T14:08:48;24.30;98.60
26599;DHT22;14240;51.064;16.612;2023-07-31T14:11:13;24.20;98.40
26599;DHT22;14240;51.064;16.612;2023-07-31T14:13:39;24.20;98.20
26599;DHT22;14240;51.064;16.612;2023-07-31T14:16:05;24.20;98.20
26599;DHT22;14240;51.064;16.612;2023-07-31T14:18:30;24.10;98.10
26599;DHT22;14240;51.064;16.612;2023-07-31T14:20:56;24.00;98.10
26599;DHT22;14240;51.064;16.612;2023-07-31T14:23:22;24.00;98.50
26599;DHT22;14240;51.064;16.612;2023-07-31T14:25:47;24.00;98.20
26599;DHT22;14240;51.064;16.612;2023-07-31T14:28:13;23.90;98.40
26599;DHT22;14240;51.064;16.612;2023-07-31T14:30:39;24.00;98.50
26599;DHT22;14240;51.064;16.612;2023-07-31T14:33:05;24.00;98.60
26599;DHT22;14240;51.064;16.612;2023-07-31T14:35:30;23.90;98.30
26599;DHT22;14240;51.064;16.612;2023-07-31T14:37:56;24.00;98.30
26599;DHT22;14240;51.064;16.612;2023-07-31T14:40:22;24.10;98.60
26599;DHT22;14240;51.064;16.612;2023-07-31T14:42:47;24.00;98.70
26599;DHT22;14240;51.064;16.612;2023-07-31T14:45:13;24.10;98.20
26599;DHT22;14240;51.064;16.612;2023-07-31T14:47:39;24.10;98.60
26599;DHT22;14240;51.064;16.612;2023-07-31T14:50:05;24.10;98.20
26599;DHT22;14240;51.064;16.612;2023-07-31T14:52:31;24.10;97.80
26599;DHT22;14240;51.064;16.612;2023-07-31T14:54:57;24.10;97.70
26599;DHT22;14240;51.064;16.612;2023-07-31T14:57:22;24.10;97.60
26599;DHT22;14240;51.064;16.612;2023-07-31T14:59:48;24.10;97.60
26599;DHT22;14240;51.064;16.612;2023-07-31T15:02:15;24.00;97.70
26599;DHT22;14240;51.064;16.612;2023-07-31T15:04:41;24.00;97.90
26599;DHT22;14240;51.064;16.612;2023-07-31T15:07:07;24.00;98.00
26599;DHT22;14240;51.064;16.612;2023-07-31T15:09:32;24.00;97.90
26599;DHT22;14240;51.064;16.612;2023-07-31T15:11:58;24.00;97.50
26599;DHT22;14240;51.064;16.612;2023-07-31T15:14:24;24.00;97.70
26599;DHT22;14240;51.064;16.612;2023-07-31T15:16:53;24.00;97.80
26599;DHT22;14240;51.064;16.612;2023-07-31T15:19:18;24.00;97.90
26599;DHT22;14240;51.064;16.612;2023-07-31T15:21:44;24.00;97.80